Time;durP1;ratioP1;P1;durP2;ratioP2;P2;SDS_P1;SDS_P2;PMS_P1;PMS_P2;Temp;Humidity;BMP_temperature;BMP_pressure;BME280_temperature;BME280_humidity;BME280_pressure;Samples;Min_cycle;Max_cycle;Signal;HPM_P1;HPM_P2
2022/02/04 00:06:10;;;;;;;;;;;7.70;99.90;;;;;;5000420;28;20405;-74
2022/02/04 00:09:05;;;;;;;;;;;7.70;99.90;;;;;;5001638;28;19984;-74
2022/02/04 00:22:45;;;;;;;;;;;7.70;99.90;;;;;;5007306;28;20424;-74
2022/02/04 00:25:19;;;;;;;;;;;7.70;99.90;;;;;;4998763;28;19972;-75
2022/02/04 00:27:47;;;;;;;;;;;7.70;99.90;;;;;;5003562;28;19925;-75
2022/02/04 00:30:20;;;;;;;;;;;7.70;99.90;;;;;;4997093;28;19987;-74
2022/02/04 00:32:49;;;;;;;;;;;7.60;99.90;;;;;;4999280;28;19934;-75
2022/02/04 00:35:27;;;;;;;;;;;7.70;99.90;;;;;;5009984;28;19925;-74
2022/02/04 00:37:59;;;;;;;;;;;7.70;99.90;;;;;;5004139;28;19969;-74
2022/02/04 00:40:29;;;;;;;;;;;7.80;99.90;;;;;;5005347;28;20051;-74
2022/02/04 00:42:59;;;;;;;;;;;7.70;99.90;;;;;;4997758;28;19933;-75
2022/02/04 00:45:33;;;;;;;;;;;7.70;99.90;;;;;;5000668;28;19972;-75
2022/02/04 00:48:10;;;;;;;;;;;7.70;99.90;;;;;;4999915;28;19925;-75
2022/02/04 00:50:50;;;;;;;;;;;7.70;99.90;;;;;;5001477;28;20016;-74
2022/02/04 00:53:25;;;;;;;;;;;7.70;99.90;;;;;;4997382;28;19933;-75
2022/02/04 00:56:06;;;;;;;;;;;7.70;99.90;;;;;;5002926;28;19926;-74
2022/02/04 01:26:03;;;;;;;;;;;7.60;99.90;;;;;;5001802;28;19932;-73
2022/02/04 01:28:31;;;;;;;;;;;7.60;99.90;;;;;;4994122;28;19940;-73
2022/02/04 01:30:57;;;;;;;;;;;7.60;99.90;;;;;;5006481;28;19958;-74
2022/02/04 01:33:26;;;;;;;;;;;7.70;99.90;;;;;;4999833;28;20021;-74
2022/02/04 01:35:55;;;;;;;;;;;7.70;99.90;;;;;;4997141;28;19933;-73
2022/02/04 01:38:21;;;;;;;;;;;7.80;99.90;;;;;;5003652;28;20132;-74
2022/02/04 01:40:48;;;;;;;;;;;7.80;99.90;;;;;;5004046;28;19931;-74
2022/02/04 01:43:16;;;;;;;;;;;7.80;99.90;;;;;;4999285;28;19933;-74
2022/02/04 01:45:43;;;;;;;;;;;7.80;99.90;;;;;;4994433;28;19948;-75
2022/02/04 01:48:10;;;;;;;;;;;7.80;99.90;;;;;;5003664;28;19932;-73
2022/02/04 01:50:38;;;;;;;;;;;7.90;99.90;;;;;;4999293;28;19925;-74
2022/02/04 01:53:05;;;;;;;;;;;7.90;99.90;;;;;;4992764;28;20454;-74
2022/02/04 01:55:32;;;;;;;;;;;7.90;99.90;;;;;;4999239;28;19999;-74
2022/02/04 01:57:58;;;;;;;;;;;8.00;99.90;;;;;;5006900;28;19925;-74
2022/02/04 02:00:25;;;;;;;;;;;7.90;99.90;;;;;;5008785;28;19925;-74
2022/02/04 02:02:52;;;;;;;;;;;8.00;99.90;;;;;;5000415;28;19936;-74
2022/02/04 02:05:18;;;;;;;;;;;7.90;99.90;;;;;;5002923;28;19956;-75
2022/02/04 02:07:48;;;;;;;;;;;7.90;99.90;;;;;;4994951;28;20297;-74
2022/02/04 02:10:17;;;;;;;;;;;7.90;99.90;;;;;;4993697;28;20513;-74
2022/02/04 02:12:52;;;;;;;;;;;8.00;99.90;;;;;;5002181;28;19926;-74
2022/02/04 02:15:25;;;;;;;;;;;8.00;99.90;;;;;;5000400;28;20017;-74
2022/02/04 02:45:59;;;;;;;;;;;8.00;99.90;;;;;;5129841;27;19916;-74
2022/02/04 02:48:42;;;;;;;;;;;7.90;99.90;;;;;;5120935;27;19931;-73
2022/02/04 02:54:34;;;;;;;;;;;8.00;99.90;;;;;;5093336;27;19924;-74
2022/02/04 02:57:26;;;;;;;;;;;8.00;99.90;;;;;;5123156;27;19923;-74
2022/02/04 02:59:57;;;;;;;;;;;8.00;99.90;;;;;;5117110;27;19924;-74
2022/02/04 03:02:26;;;;;;;;;;;8.00;99.90;;;;;;5119806;27;19924;-74
2022/02/04 03:04:52;;;;;;;;;;;8.00;99.90;;;;;;5117554;28;19971;-73
2022/02/04 03:07:19;;;;;;;;;;;8.00;99.90;;;;;;5126780;27;19929;-74
2022/02/04 03:09:45;;;;;;;;;;;7.90;99.90;;;;;;5125157;27;20378;-73
2022/02/04 03:12:12;;;;;;;;;;;7.90;99.90;;;;;;5122551;27;19924;-73
2022/02/04 03:14:39;;;;;;;;;;;8.00;99.90;;;;;;5114968;28;20413;-73
2022/02/04 03:17:09;;;;;;;;;;;8.00;99.90;;;;;;5113096;28;20044;-74
2022/02/04 03:19:39;;;;;;;;;;;7.90;99.90;;;;;;5112811;27;20006;-73
2022/02/04 03:22:10;;;;;;;;;;;8.00;99.90;;;;;;5114466;28;19928;-73
2022/02/04 03:24:39;;;;;;;;;;;7.90;99.90;;;;;;5114662;27;19939;-74
2022/02/04 03:27:09;;;;;;;;;;;8.00;99.90;;;;;;5124368;28;19946;-73
2022/02/04 03:29:53;;;;;;;;;;;8.00;99.90;;;;;;5125794;27;19924;-73
2022/02/04 03:32:21;;;;;;;;;;;8.00;99.90;;;;;;5124205;27;19984;-74
2022/02/04 03:34:49;;;;;;;;;;;8.00;99.90;;;;;;5110052;27;19963;-74
2022/02/04 03:37:16;;;;;;;;;;;8.00;99.90;;;;;;5115526;28;20318;-74
2022/02/04 03:39:42;;;;;;;;;;;8.00;99.90;;;;;;5119342;27;20400;-73
2022/02/04 03:42:09;;;;;;;;;;;8.10;99.90;;;;;;5123678;28;19930;-72
2022/02/04 03:44:36;;;;;;;;;;;8.00;99.90;;;;;;5116561;27;20694;-74
2022/02/04 03:47:03;;;;;;;;;;;8.00;99.90;;;;;;5113934;27;19930;-73
2022/02/04 03:49:29;;;;;;;;;;;8.00;99.90;;;;;;5118947;27;20294;-73
2022/02/04 03:51:58;;;;;;;;;;;8.00;99.90;;;;;;5112896;27;20424;-73
2022/02/04 03:54:24;;;;;;;;;;;8.00;99.90;;;;;;5118073;27;20014;-73
2022/02/04 03:56:51;;;;;;;;;;;8.10;99.90;;;;;;5102155;27;19933;-74
2022/02/04 03:59:17;;;;;;;;;;;8.10;99.90;;;;;;5109819;27;19932;-73
2022/02/04 04:01:44;;;;;;;;;;;8.10;99.90;;;;;;5106512;27;19923;-73
2022/02/04 04:04:11;;;;;;;;;;;8.10;99.90;;;;;;5105581;28;19932;-73
2022/02/04 04:06:37;;;;;;;;;;;8.10;99.90;;;;;;5100993;28;19930;-74
2022/02/04 04:09:05;;;;;;;;;;;8.10;99.90;;;;;;5107612;28;20010;-73
2022/02/04 04:11:32;;;;;;;;;;;8.10;99.90;;;;;;5116992;27;20018;-73
2022/02/04 04:13:59;;;;;;;;;;;8.10;99.90;;;;;;5110950;27;19924;-73
2022/02/04 04:16:25;;;;;;;;;;;8.10;99.90;;;;;;5103624;27;19930;-74
2022/02/04 04:18:52;;;;;;;;;;;8.10;99.90;;;;;;5110921;27;19928;-73
2022/02/04 04:21:18;;;;;;;;;;;8.10;99.90;;;;;;5106829;28;19924;-73
2022/02/04 04:23:45;;;;;;;;;;;8.10;99.90;;;;;;5110698;27;19955;-74
2022/02/04 04:26:13;;;;;;;;;;;8.10;99.90;;;;;;5103398;27;19934;-73
2022/02/04 04:28:40;;;;;;;;;;;8.10;99.90;;;;;;5097162;27;19932;-74
2022/02/04 04:31:06;;;;;;;;;;;8.10;99.90;;;;;;5104254;27;20018;-73
2022/02/04 04:33:33;;;;;;;;;;;8.00;99.90;;;;;;5110088;28;20404;-74
2022/02/04 04:36:00;;;;;;;;;;;8.00;99.90;;;;;;5101660;27;19924;-74
2022/02/04 04:38:33;;;;;;;;;;;8.00;99.90;;;;;;5099329;28;19923;-75
2022/02/04 04:41:12;;;;;;;;;;;8.10;99.90;;;;;;5103006;28;19992;-74
2022/02/04 04:44:01;;;;;;;;;;;8.00;99.90;;;;;;5094435;28;19982;-75
2022/02/04 05:30:17;;;;;;;;;;;7.70;99.90;;;;;;5105324;27;19924;-74
2022/02/04 05:32:45;;;;;;;;;;;7.60;99.90;;;;;;5102629;28;20340;-74
2022/02/04 05:35:12;;;;;;;;;;;7.70;99.90;;;;;;5102202;28;19981;-74
2022/02/04 05:37:43;;;;;;;;;;;7.70;99.90;;;;;;5103422;28;19924;-74
2022/02/04 05:40:13;;;;;;;;;;;7.70;99.90;;;;;;5107816;27;19987;-74
2022/02/04 05:42:46;;;;;;;;;;;7.70;99.90;;;;;;5104183;27;19971;-73
2022/02/04 05:45:17;;;;;;;;;;;7.80;99.90;;;;;;5105799;28;19931;-74
2022/02/04 05:47:48;;;;;;;;;;;7.80;99.90;;;;;;5103974;28;19931;-75
2022/02/04 05:50:20;;;;;;;;;;;7.80;99.90;;;;;;5101079;28;19930;-73
2022/02/04 05:53:00;;;;;;;;;;;7.70;99.90;;;;;;5098290;28;19973;-74
2022/02/04 05:55:44;;;;;;;;;;;7.70;99.90;;;;;;5095360;28;19924;-73
2022/02/04 05:58:25;;;;;;;;;;;7.70;99.90;;;;;;5095925;28;19931;-74
2022/02/04 06:00:59;;;;;;;;;;;7.70;99.90;;;;;;5094251;28;19967;-74
2022/02/04 06:03:37;;;;;;;;;;;7.70;99.90;;;;;;5097509;28;19978;-74
2022/02/04 06:09:20;;;;;;;;;;;7.70;99.90;;;;;;5096891;28;19923;-75
2022/02/04 06:11:57;;;;;;;;;;;7.60;99.90;;;;;;5103247;28;19931;-74
2022/02/04 06:14:48;;;;;;;;;;;7.60;99.90;;;;;;5100463;28;20470;-74
2022/02/04 06:22:45;;;;;;;;;;;7.60;99.90;;;;;;5097199;28;20024;-73
2022/02/04 06:25:12;;;;;;;;;;;7.50;99.90;;;;;;5096154;28;19928;-72
2022/02/04 06:27:39;;;;;;;;;;;7.50;99.90;;;;;;5097349;28;19923;-73
2022/02/04 06:30:06;;;;;;;;;;;7.50;99.90;;;;;;5096258;27;19924;-73
2022/02/04 06:32:33;;;;;;;;;;;7.50;99.90;;;;;;5105142;27;20285;-76
2022/02/04 06:35:01;;;;;;;;;;;7.50;99.90;;;;;;5098917;28;20383;-72
2022/02/04 06:37:28;;;;;;;;;;;7.50;99.90;;;;;;5097260;28;19989;-72
2022/02/04 06:39:55;;;;;;;;;;;7.40;99.90;;;;;;5098795;28;19924;-73
2022/02/04 06:42:23;;;;;;;;;;;7.40;99.90;;;;;;5093829;28;19931;-72
2022/02/04 06:44:49;;;;;;;;;;;7.40;99.90;;;;;;5097861;28;20018;-72
2022/02/04 06:47:16;;;;;;;;;;;7.40;99.90;;;;;;5095207;28;19932;-72
2022/02/04 06:49:43;;;;;;;;;;;7.40;99.90;;;;;;5095324;28;20000;-72
2022/02/04 06:52:11;;;;;;;;;;;7.40;99.90;;;;;;5093616;28;19962;-72
2022/02/04 06:54:38;;;;;;;;;;;7.40;99.90;;;;;;5096677;28;20030;-73
2022/02/04 06:57:09;;;;;;;;;;;7.40;99.90;;;;;;5089451;28;19924;-73
2022/02/04 06:59:38;;;;;;;;;;;7.40;99.90;;;;;;5095684;28;19932;-73
2022/02/04 07:02:04;;;;;;;;;;;7.40;99.90;;;;;;5092101;28;19977;-72
2022/02/04 07:04:34;;;;;;;;;;;7.40;99.90;;;;;;5094694;28;20291;-74
2022/02/04 07:07:02;;;;;;;;;;;7.50;99.90;;;;;;5100119;28;19927;-75
2022/02/04 07:09:42;;;;;;;;;;;7.50;99.90;;;;;;5093450;28;20014;-74
2022/02/04 07:12:20;;;;;;;;;;;7.50;99.90;;;;;;5099408;28;20393;-72
2022/02/04 07:15:09;;;;;;;;;;;7.50;99.90;;;;;;5103171;28;19932;-72
2022/02/04 07:17:42;;;;;;;;;;;7.50;99.90;;;;;;5096077;28;19924;-72
2022/02/04 07:20:08;;;;;;;;;;;7.50;99.90;;;;;;5100512;28;20378;-71
2022/02/04 07:22:35;;;;;;;;;;;7.50;99.90;;;;;;5097200;28;19926;-74
2022/02/04 07:25:04;;;;;;;;;;;7.50;99.90;;;;;;5093439;28;20337;-74
2022/02/04 07:27:32;;;;;;;;;;;7.50;99.90;;;;;;5100504;28;20290;-73
2022/02/04 07:29:59;;;;;;;;;;;7.60;99.90;;;;;;5094032;28;19968;-73
2022/02/04 07:32:31;;;;;;;;;;;7.50;99.90;;;;;;5097046;28;20439;-72
2022/02/04 07:35:20;;;;;;;;;;;7.60;99.90;;;;;;5101420;27;19924;-72
2022/02/04 07:43:17;;;;;;;;;;;7.60;99.90;;;;;;5101167;28;19931;-72
2022/02/04 07:45:44;;;;;;;;;;;7.60;99.90;;;;;;5104718;27;19932;-73
2022/02/04 07:48:18;;;;;;;;;;;7.60;99.90;;;;;;5107337;27;20022;-74
2022/02/04 07:50:46;;;;;;;;;;;7.50;99.90;;;;;;5097097;28;19946;-72
2022/02/04 07:53:16;;;;;;;;;;;7.60;99.90;;;;;;5102889;27;19938;-73
2022/02/04 07:55:45;;;;;;;;;;;7.50;99.90;;;;;;5098910;27;19982;-74
2022/02/04 07:58:12;;;;;;;;;;;7.60;99.90;;;;;;5093027;28;19977;-75
2022/02/04 08:00:40;;;;;;;;;;;7.50;99.90;;;;;;5098312;27;19948;-74
2022/02/04 08:03:19;;;;;;;;;;;7.50;99.90;;;;;;5097704;28;19964;-73
2022/02/04 08:05:47;;;;;;;;;;;7.50;99.90;;;;;;5104939;27;19923;-73
2022/02/04 08:08:19;;;;;;;;;;;7.50;99.90;;;;;;5100067;28;19924;-75
2022/02/04 08:11:04;;;;;;;;;;;7.60;99.90;;;;;;5096210;28;20363;-74
2022/02/04 08:16:49;;;;;;;;;;;7.60;99.90;;;;;;5092522;27;19924;-73
2022/02/04 08:25:05;;;;;;;;;;;7.70;99.90;;;;;;5096687;27;19943;-72
2022/02/04 08:30:36;;;;;;;;;;;7.80;99.90;;;;;;5095240;27;19928;-74
2022/02/04 08:33:31;;;;;;;;;;;7.80;99.90;;;;;;5098810;28;20354;-73
2022/02/04 08:38:58;;;;;;;;;;;7.80;99.90;;;;;;5027530;28;19925;-72
2022/02/04 08:47:10;;;;;;;;;;;7.80;99.90;;;;;;5096493;28;19931;-74
2022/02/04 08:49:58;;;;;;;;;;;7.90;99.90;;;;;;5110545;27;20345;-74
2022/02/04 08:52:40;;;;;;;;;;;7.90;99.90;;;;;;5099351;28;19924;-72
2022/02/04 08:55:10;;;;;;;;;;;7.90;99.90;;;;;;5101046;27;19931;-73
2022/02/04 08:57:41;;;;;;;;;;;7.90;99.90;;;;;;5092965;28;20391;-73
2022/02/04 09:00:19;;;;;;;;;;;7.90;99.90;;;;;;5101290;27;19924;-70
2022/02/04 09:02:53;;;;;;;;;;;7.90;99.90;;;;;;5097079;28;19928;-73
2022/02/04 09:05:25;;;;;;;;;;;7.90;99.90;;;;;;5105234;27;19942;-73
2022/02/04 09:07:56;;;;;;;;;;;8.00;99.90;;;;;;5097476;28;19924;-73
2022/02/04 09:10:26;;;;;;;;;;;7.90;99.90;;;;;;5101334;28;20439;-72
2022/02/04 09:18:41;;;;;;;;;;;7.90;99.90;;;;;;5016577;28;19959;-73
2022/02/04 09:23:52;;;;;;;;;;;7.90;99.90;;;;;;5065598;28;19930;-72
2022/02/04 09:26:19;;;;;;;;;;;7.90;99.90;;;;;;5099782;27;21907;-71
2022/02/04 09:28:45;;;;;;;;;;;7.90;99.90;;;;;;5092468;27;19930;-73
2022/02/04 09:31:14;;;;;;;;;;;8.00;99.90;;;;;;5094712;28;20011;-73
2022/02/04 09:33:40;;;;;;;;;;;8.20;99.90;;;;;;5096006;28;19924;-73
2022/02/04 09:36:07;;;;;;;;;;;8.10;99.90;;;;;;5099741;27;20164;-73
2022/02/04 09:38:34;;;;;;;;;;;8.20;99.90;;;;;;5100958;27;19932;-73
2022/02/04 09:41:00;;;;;;;;;;;8.20;99.90;;;;;;5102137;28;19924;-72
2022/02/04 09:43:28;;;;;;;;;;;8.20;99.90;;;;;;5112380;27;20647;-72
2022/02/04 09:45:55;;;;;;;;;;;8.10;99.90;;;;;;5093335;27;19961;-72
2022/02/04 09:48:23;;;;;;;;;;;8.00;99.90;;;;;;5094338;27;19935;-72
2022/02/04 09:50:53;;;;;;;;;;;8.00;99.90;;;;;;5110998;27;19978;-72
2022/02/04 10:07:34;;;;;;;;;;;8.60;99.90;;;;;;5049014;28;19986;-72
2022/02/04 10:10:36;;;;;;;;;;;8.60;99.90;;;;;;5103042;28;22598;-72
2022/02/04 10:16:19;;;;;;;;;;;8.50;99.90;;;;;;5084111;28;19931;-72
2022/02/04 10:18:51;;;;;;;;;;;8.40;99.90;;;;;;5098514;28;19957;-73
2022/02/04 10:21:19;;;;;;;;;;;8.40;99.90;;;;;;5101533;28;19942;-72
2022/02/04 10:23:46;;;;;;;;;;;8.50;99.90;;;;;;5102995;28;19954;-73
2022/02/04 10:26:13;;;;;;;;;;;8.50;99.90;;;;;;5097819;28;19924;-73
2022/02/04 10:28:40;;;;;;;;;;;8.60;99.90;;;;;;5095138;28;19975;-72
2022/02/04 10:31:07;;;;;;;;;;;8.60;99.90;;;;;;5100225;28;19939;-73
2022/02/04 10:33:34;;;;;;;;;;;8.60;99.90;;;;;;5093786;28;19932;-72
2022/02/04 10:36:05;;;;;;;;;;;8.70;99.90;;;;;;5102868;27;19930;-72
2022/02/04 10:38:40;;;;;;;;;;;8.60;99.90;;;;;;5095129;28;19924;-73
2022/02/04 10:41:12;;;;;;;;;;;8.60;99.90;;;;;;5089014;28;19928;-72
2022/02/04 10:43:57;;;;;;;;;;;8.70;99.90;;;;;;5090890;28;19985;-73
2022/02/04 10:46:31;;;;;;;;;;;8.70;99.90;;;;;;5095567;28;19931;-73
2022/02/04 10:49:12;;;;;;;;;;;8.60;99.90;;;;;;5100693;28;19924;-73
2022/02/04 11:00:08;;;;;;;;;;;8.50;99.90;;;;;;5101321;28;20375;-73
2022/02/04 11:02:40;;;;;;;;;;;8.50;99.90;;;;;;5094941;28;20885;-73
2022/02/04 11:05:15;;;;;;;;;;;8.60;99.90;;;;;;5096991;27;19932;-73
2022/02/04 11:35:40;;;;;;;;;;;8.70;99.90;;;;;;5068434;28;20487;-72
2022/02/04 11:52:44;;;;;;;;;;;8.80;99.90;;;;;;5095214;27;19936;-72
2022/02/04 11:55:28;;;;;;;;;;;8.90;99.90;;;;;;5105605;27;19987;-72
2022/02/04 11:57:58;;;;;;;;;;;8.80;99.90;;;;;;5100804;28;19930;-72
2022/02/04 12:00:27;;;;;;;;;;;8.90;99.90;;;;;;5101878;27;19924;-73
2022/02/04 12:02:54;;;;;;;;;;;9.00;99.90;;;;;;5104784;28;19923;-73
2022/02/04 12:05:34;;;;;;;;;;;9.10;99.90;;;;;;5103513;28;19923;-72
2022/02/04 12:08:30;;;;;;;;;;;9.10;99.90;;;;;;5103501;28;19931;-73
2022/02/04 12:10:59;;;;;;;;;;;9.20;99.90;;;;;;5101546;27;19978;-73
2022/02/04 12:13:26;;;;;;;;;;;9.10;99.90;;;;;;5104035;28;19932;-72
2022/02/04 12:16:04;;;;;;;;;;;9.20;99.90;;;;;;5103295;27;19923;-73
2022/02/04 12:18:51;;;;;;;;;;;9.30;99.90;;;;;;5107802;27;20006;-73
2022/02/04 12:21:19;;;;;;;;;;;9.30;99.90;;;;;;5096085;28;19924;-75
2022/02/04 12:23:48;;;;;;;;;;;9.40;99.90;;;;;;5096186;28;20444;-74
2022/02/04 12:26:17;;;;;;;;;;;9.30;99.90;;;;;;5098588;28;20014;-73
2022/02/04 12:28:47;;;;;;;;;;;9.30;99.90;;;;;;5104530;27;19927;-72
2022/02/04 12:31:17;;;;;;;;;;;9.50;99.90;;;;;;5107169;27;19931;-73
2022/02/04 12:33:45;;;;;;;;;;;9.40;99.90;;;;;;5101402;28;19959;-73
2022/02/04 12:36:12;;;;;;;;;;;9.60;99.90;;;;;;5101310;28;19941;-73
2022/02/04 12:38:39;;;;;;;;;;;9.80;99.90;;;;;;5103557;28;19924;-72
2022/02/04 12:41:06;;;;;;;;;;;10.00;99.90;;;;;;5099897;28;20006;-72
2022/02/04 12:43:35;;;;;;;;;;;9.90;99.90;;;;;;5099381;28;20011;-74
2022/02/04 12:46:01;;;;;;;;;;;9.90;99.90;;;;;;5103125;27;19967;-73
2022/02/04 12:48:30;;;;;;;;;;;9.80;99.90;;;;;;5098049;27;19934;-72
2022/02/04 12:50:56;;;;;;;;;;;9.80;99.90;;;;;;5099129;27;20003;-74
2022/02/04 12:53:24;;;;;;;;;;;9.70;99.90;;;;;;5101029;27;19947;-74
2022/02/04 12:56:04;;;;;;;;;;;9.60;99.90;;;;;;5104128;28;19931;-73
2022/02/04 12:58:54;;;;;;;;;;;9.60;99.90;;;;;;5099684;27;20141;-73
2022/02/04 13:09:51;;;;;;;;;;;9.40;99.90;;;;;;5119803;27;19935;-73
2022/02/04 13:12:19;;;;;;;;;;;9.40;99.90;;;;;;5099161;28;20378;-73
2022/02/04 13:14:47;;;;;;;;;;;9.30;99.90;;;;;;5105352;28;19932;-73
2022/02/04 13:17:28;;;;;;;;;;;9.30;99.90;;;;;;5105824;27;19988;-74
2022/02/04 13:19:56;;;;;;;;;;;9.20;99.90;;;;;;5097386;28;19963;-75
2022/02/04 13:22:23;;;;;;;;;;;9.20;99.90;;;;;;5100333;27;20010;-73
2022/02/04 13:25:03;;;;;;;;;;;9.10;99.90;;;;;;5097329;27;19924;-73
2022/02/04 13:27:30;;;;;;;;;;;9.00;99.90;;;;;;5096336;28;20026;-73
2022/02/04 13:29:57;;;;;;;;;;;9.00;99.90;;;;;;5103726;27;20022;-74
2022/02/04 13:32:24;;;;;;;;;;;8.80;99.90;;;;;;5104551;27;19923;-74
2022/02/04 13:34:52;;;;;;;;;;;8.60;99.90;;;;;;5109130;27;19931;-73
2022/02/04 13:37:33;;;;;;;;;;;8.50;99.90;;;;;;5103073;28;19924;-74
2022/02/04 13:40:04;;;;;;;;;;;8.40;99.90;;;;;;5103556;28;21818;-73
2022/02/04 13:42:40;;;;;;;;;;;8.40;99.90;;;;;;5101248;28;20350;-72
2022/02/04 13:45:23;;;;;;;;;;;8.40;99.90;;;;;;5100793;27;19981;-73
2022/02/04 13:47:59;;;;;;;;;;;8.40;99.90;;;;;;5099103;28;19924;-73
2022/02/04 13:50:32;;;;;;;;;;;8.40;99.90;;;;;;5097220;27;19951;-69
2022/02/04 13:53:14;;;;;;;;;;;8.40;99.90;;;;;;5089725;27;20012;-72
2022/02/04 13:55:54;;;;;;;;;;;8.40;99.90;;;;;;5108968;27;19931;-73
2022/02/04 13:58:32;;;;;;;;;;;8.30;99.90;;;;;;5093303;27;19973;-73
2022/02/04 14:01:05;;;;;;;;;;;8.30;99.90;;;;;;5099844;28;20284;-73
2022/02/04 14:03:34;;;;;;;;;;;8.30;99.90;;;;;;5097945;28;19932;-72
2022/02/04 14:06:03;;;;;;;;;;;8.20;99.90;;;;;;5105211;27;19955;-74
2022/02/04 14:08:38;;;;;;;;;;;8.20;99.90;;;;;;5099187;27;19987;-74
2022/02/04 14:11:08;;;;;;;;;;;8.20;99.90;;;;;;5103105;28;20342;-73
2022/02/04 14:13:35;;;;;;;;;;;8.10;99.90;;;;;;5096466;28;19946;-71
2022/02/04 14:16:03;;;;;;;;;;;8.10;99.90;;;;;;5098310;28;19947;-72
2022/02/04 14:18:31;;;;;;;;;;;7.90;99.90;;;;;;5102499;27;19923;-72
2022/02/04 14:20:58;;;;;;;;;;;7.80;99.90;;;;;;5098501;28;19927;-72
2022/02/04 14:23:25;;;;;;;;;;;7.60;99.90;;;;;;5099765;28;19928;-73
2022/02/04 14:25:58;;;;;;;;;;;7.50;99.90;;;;;;5102951;28;19924;-72
2022/02/04 14:28:34;;;;;;;;;;;7.10;99.90;;;;;;5100830;28;20032;-72
2022/02/04 14:31:07;;;;;;;;;;;6.60;99.90;;;;;;5101040;27;19932;-72
2022/02/04 14:36:27;;;;;;;;;;;5.70;99.90;;;;;;5095072;28;20412;-72
2022/02/04 14:50:12;;;;;;;;;;;5.40;99.90;;;;;;5102976;28;19974;-73
2022/02/04 14:52:54;;;;;;;;;;;5.30;99.90;;;;;;5102269;28;19928;-73
2022/02/04 15:00:54;;;;;;;;;;;5.30;99.90;;;;;;5099195;28;19943;-74
2022/02/04 15:03:28;;;;;;;;;;;5.30;99.90;;;;;;5098631;28;19931;-73
2022/02/04 15:06:03;;;;;;;;;;;5.30;99.90;;;;;;5093815;28;19924;-71
2022/02/04 15:08:33;;;;;;;;;;;5.30;99.90;;;;;;5090720;28;19939;-72
2022/02/04 15:11:02;;;;;;;;;;;5.30;99.90;;;;;;5094789;28;19923;-71
2022/02/04 15:13:31;;;;;;;;;;;5.30;99.90;;;;;;5096955;28;19939;-73
2022/02/04 15:15:59;;;;;;;;;;;5.20;99.90;;;;;;5099351;28;19924;-72
2022/02/04 15:18:26;;;;;;;;;;;5.10;99.90;;;;;;5103604;28;20302;-72
2022/02/04 15:20:58;;;;;;;;;;;5.00;99.90;;;;;;5096604;28;19989;-73
2022/02/04 15:23:25;;;;;;;;;;;5.10;99.90;;;;;;5101973;28;19923;-72
2022/02/04 15:25:55;;;;;;;;;;;5.10;99.90;;;;;;5105849;28;20019;-74
2022/02/04 15:28:38;;;;;;;;;;;5.10;99.90;;;;;;5094711;28;19927;-73
2022/02/04 15:31:10;;;;;;;;;;;5.10;99.90;;;;;;5090510;28;20401;-73
2022/02/04 15:33:38;;;;;;;;;;;5.20;99.90;;;;;;5102716;28;20028;-73
2022/02/04 15:36:05;;;;;;;;;;;5.10;99.90;;;;;;5098342;28;19928;-73
2022/02/04 15:38:31;;;;;;;;;;;5.10;99.90;;;;;;5100348;28;19970;-73
2022/02/04 15:40:58;;;;;;;;;;;5.00;99.90;;;;;;5101088;28;19923;-74
2022/02/04 15:43:27;;;;;;;;;;;5.10;99.90;;;;;;5100959;28;19946;-73
2022/02/04 15:46:32;;;;;;;;;;;5.10;99.90;;;;;;5080098;28;19924;-74
2022/02/04 15:49:13;;;;;;;;;;;5.20;99.90;;;;;;5075699;28;19944;-74
2022/02/04 15:52:01;;;;;;;;;;;5.20;99.90;;;;;;5075305;28;20103;-71
2022/02/04 15:54:44;;;;;;;;;;;5.30;99.90;;;;;;5082285;28;19932;-74
2022/02/04 15:57:31;;;;;;;;;;;5.40;99.90;;;;;;5078548;28;19967;-74
2022/02/04 16:00:26;;;;;;;;;;;5.30;99.90;;;;;;5075428;28;21159;-74
2022/02/04 16:03:14;;;;;;;;;;;5.20;99.90;;;;;;5077573;28;19932;-73
2022/02/04 16:05:44;;;;;;;;;;;5.10;99.90;;;;;;5079068;28;19924;-76
2022/02/04 16:08:14;;;;;;;;;;;5.00;99.90;;;;;;5080660;28;19925;-74
2022/02/04 16:10:53;;;;;;;;;;;4.90;99.90;;;;;;5080501;28;19928;-74
2022/02/04 16:13:32;;;;;;;;;;;4.90;99.90;;;;;;5078472;28;20362;-74
2022/02/04 16:16:05;;;;;;;;;;;4.90;99.90;;;;;;5075960;28;19982;-74
2022/02/04 16:18:39;;;;;;;;;;;4.80;99.90;;;;;;5073915;28;20401;-74
2022/02/04 16:21:14;;;;;;;;;;;4.80;99.90;;;;;;5080401;28;19935;-74
2022/02/04 16:23:55;;;;;;;;;;;4.80;99.90;;;;;;5090411;28;19935;-73
2022/02/04 16:26:47;;;;;;;;;;;4.80;99.90;;;;;;5088463;28;19970;-74
2022/02/04 16:29:13;;;;;;;;;;;4.80;99.90;;;;;;5097953;28;19924;-78
2022/02/04 16:31:39;;;;;;;;;;;4.80;99.90;;;;;;5102346;28;19967;-79
2022/02/04 16:34:09;;;;;;;;;;;4.70;99.90;;;;;;5082373;28;19924;-75
2022/02/04 16:36:39;;;;;;;;;;;4.60;99.90;;;;;;5082134;28;19969;-77
2022/02/04 16:39:08;;;;;;;;;;;4.50;99.90;;;;;;5083373;28;19935;-76
2022/02/04 16:41:47;;;;;;;;;;;4.50;99.90;;;;;;5080741;28;19924;-74
2022/02/04 16:44:14;;;;;;;;;;;4.40;99.90;;;;;;5088846;28;20402;-78
2022/02/04 16:46:41;;;;;;;;;;;4.40;99.90;;;;;;5102084;28;20026;-76
2022/02/04 16:49:08;;;;;;;;;;;4.40;99.90;;;;;;5101077;28;19982;-79
2022/02/04 16:51:35;;;;;;;;;;;4.50;99.90;;;;;;5101519;28;20243;-77
2022/02/04 16:54:03;;;;;;;;;;;4.50;99.90;;;;;;5096374;27;19924;-77
2022/02/04 16:56:30;;;;;;;;;;;4.40;99.90;;;;;;5106002;27;19924;-76
2022/02/04 16:58:59;;;;;;;;;;;4.40;99.90;;;;;;5108397;28;19984;-75
2022/02/04 17:01:26;;;;;;;;;;;4.40;99.90;;;;;;5099192;28;19931;-78
2022/02/04 17:03:57;;;;;;;;;;;4.40;99.90;;;;;;5105926;27;19928;-78
2022/02/04 17:06:26;;;;;;;;;;;4.50;99.90;;;;;;5104346;28;20431;-76
2022/02/04 17:09:04;;;;;;;;;;;4.50;99.90;;;;;;5098599;28;19970;-76
2022/02/04 17:11:34;;;;;;;;;;;4.50;99.90;;;;;;5101271;28;19985;-76
2022/02/04 17:14:01;;;;;;;;;;;4.50;99.90;;;;;;5099006;28;20014;-77
2022/02/04 17:16:28;;;;;;;;;;;4.60;99.90;;;;;;5104873;28;19924;-76
2022/02/04 17:18:55;;;;;;;;;;;4.60;99.90;;;;;;5100959;27;20317;-76
2022/02/04 17:21:24;;;;;;;;;;;4.70;99.90;;;;;;5093410;28;20014;-76
2022/02/04 17:23:52;;;;;;;;;;;4.70;99.90;;;;;;5094731;27;19930;-76
2022/02/04 17:26:21;;;;;;;;;;;4.80;99.90;;;;;;5092519;28;19924;-76
2022/02/04 17:28:50;;;;;;;;;;;4.80;99.90;;;;;;5102127;28;20027;-77
2022/02/04 17:31:16;;;;;;;;;;;4.70;99.90;;;;;;5095151;28;19939;-76
2022/02/04 17:33:43;;;;;;;;;;;4.70;99.90;;;;;;5100264;27;19928;-76
2022/02/04 17:36:10;;;;;;;;;;;4.60;99.90;;;;;;5101459;28;19964;-75
2022/02/04 17:38:37;;;;;;;;;;;4.60;99.90;;;;;;5099567;28;19932;-75
2022/02/04 17:41:05;;;;;;;;;;;4.60;99.90;;;;;;5098597;28;19939;-75
2022/02/04 17:43:33;;;;;;;;;;;4.50;99.90;;;;;;5100157;28;19931;-76
2022/02/04 17:46:01;;;;;;;;;;;4.40;99.90;;;;;;5074422;28;20331;-76
2022/02/04 17:48:37;;;;;;;;;;;4.40;99.90;;;;;;5074722;28;19998;-76
2022/02/04 17:51:14;;;;;;;;;;;4.40;99.90;;;;;;5071347;28;19924;-76
2022/02/04 17:53:49;;;;;;;;;;;4.30;99.90;;;;;;5078023;28;19923;-76
2022/02/04 17:56:28;;;;;;;;;;;4.30;99.90;;;;;;5078405;28;19940;-78
2022/02/04 17:59:07;;;;;;;;;;;4.30;99.90;;;;;;5091850;28;19933;-78
2022/02/04 18:01:49;;;;;;;;;;;4.30;99.90;;;;;;5080743;28;20414;-78
2022/02/04 18:07:11;;;;;;;;;;;4.20;99.90;;;;;;5110072;28;19970;-77
2022/02/04 18:09:56;;;;;;;;;;;4.20;99.90;;;;;;5099159;28;19924;-78
2022/02/04 18:12:24;;;;;;;;;;;4.20;99.90;;;;;;5080486;28;19991;-78
2022/02/04 18:14:51;;;;;;;;;;;4.20;99.90;;;;;;5090534;28;19936;-78
2022/02/04 18:17:19;;;;;;;;;;;4.20;99.90;;;;;;5085890;28;20292;-78
2022/02/04 18:19:46;;;;;;;;;;;4.10;99.90;;;;;;5089678;28;20280;-77
2022/02/04 18:22:13;;;;;;;;;;;4.10;99.90;;;;;;5075035;28;19925;-77
2022/02/04 18:24:40;;;;;;;;;;;4.10;99.90;;;;;;5084910;28;19931;-77
2022/02/04 18:27:08;;;;;;;;;;;4.10;99.90;;;;;;5085837;28;20294;-77
2022/02/04 18:29:34;;;;;;;;;;;4.10;99.90;;;;;;5085825;28;19924;-76
2022/02/04 18:32:01;;;;;;;;;;;4.10;99.90;;;;;;5081228;28;19970;-77
2022/02/04 18:34:29;;;;;;;;;;;4.10;99.90;;;;;;5095635;28;19924;-76
2022/02/04 18:36:59;;;;;;;;;;;4.00;99.90;;;;;;5081587;28;20001;-77
2022/02/04 18:39:37;;;;;;;;;;;4.10;99.90;;;;;;5074939;28;19928;-77
2022/02/04 18:44:51;;;;;;;;;;;4.00;99.90;;;;;;5096007;28;19994;-77
2022/02/04 18:47:28;;;;;;;;;;;4.10;99.90;;;;;;5108350;28;20409;-78
2022/02/04 18:50:02;;;;;;;;;;;4.10;99.90;;;;;;5103824;28;20018;-75
2022/02/04 18:52:44;;;;;;;;;;;4.00;99.90;;;;;;5099454;28;19951;-78
2022/02/04 18:55:41;;;;;;;;;;;4.00;99.90;;;;;;5111712;28;19963;-78
2022/02/04 18:58:09;;;;;;;;;;;4.00;99.90;;;;;;5103047;28;19931;-79
2022/02/04 19:00:36;;;;;;;;;;;4.00;99.90;;;;;;5097430;28;19943;-77
2022/02/04 19:03:06;;;;;;;;;;;4.00;99.90;;;;;;5099106;28;20342;-78
2022/02/04 19:05:39;;;;;;;;;;;3.90;99.90;;;;;;5101484;28;19930;-78
2022/02/04 19:08:10;;;;;;;;;;;3.90;99.90;;;;;;5105007;28;19923;-77
2022/02/04 19:10:38;;;;;;;;;;;3.90;99.90;;;;;;5106265;28;19931;-77
2022/02/04 19:13:10;;;;;;;;;;;3.90;99.90;;;;;;5106477;28;20010;-78
2022/02/04 19:15:59;;;;;;;;;;;3.90;99.90;;;;;;5104030;28;19936;-77
2022/02/04 19:18:32;;;;;;;;;;;3.90;99.90;;;;;;5097122;28;19924;-78
2022/02/04 19:21:03;;;;;;;;;;;3.90;99.90;;;;;;5115818;28;19924;-78